Weather reports worldwide

Advertisment
Leuchtturm Alte Weser, Germany (10124): temperature & dewpoint: 14.06.2019 06:00:00 - 20.06.2019 06:00:00 (CEST)Leuchtturm Alte Weser, Germany (10124): wind speed & gusts: 14.06.2019 06:00:00 - 20.06.2019 06:00:00 (CEST)Leuchtturm Alte Weser, Germany (10124): wind direction: 14.06.2019 06:00:00 - 20.06.2019 06:00:00 (CEST)Leuchtturm Alte Weser, Germany (10124): reduced air pressure: 14.06.2019 06:00:00 - 20.06.2019 06:00:00 (CEST)Leuchtturm Alte Weser, Germany (10124): sunshine duration: 14.06.2019 06:00:00 - 20.06.2019 06:00:00 (CEST)
Date & Time tt [°C] td [°C] ff [km/h] ff [kn] fx [km/h] fx [kn] dd ppp [hPa] sd [min]
20.06.2019 06:00:00 - - - - - - - - -
20.06.2019 05:00:00 16,5 16,5 18 10 - - SW 1006,4 0
20.06.2019 04:00:00 16,4 16,4 18 10 - - SW 1006,4 0
20.06.2019 03:00:00 16,6 16,1 18 10 - - S 1006,3 0
20.06.2019 02:00:00 17,1 15,2 14 8 - - S 1006,4 0
20.06.2019 01:00:00 16,8 14,9 18 10 - - SSE 1006,3 0
20.06.2019 00:00:00 18,2 14,3 40 21 50 27 SSE 1006,7 0
19.06.2019 23:00:00 19,8 15,1 11 6 - - SW 1006,8 0
19.06.2019 22:00:00 19,9 14,7 11 6 - - W 1006,2 30
19.06.2019 21:00:00 20,0 14,9 7 4 - - SW 1006,2 18
19.06.2019 20:00:00 20,2 15,5 4 2 - - SE 1006,1 6
19.06.2019 19:00:00 19,0 15,5 11 6 - - SE 1006,5 0
19.06.2019 18:00:00 20,9 14,5 36 19 47 25 W 1006,0 30
19.06.2019 17:00:00 23,5 15,7 22 12 - - WSW 1005,8 60
19.06.2019 16:00:00 23,2 15,1 4 2 - - SW 1005,8 36
19.06.2019 15:00:00 22,3 17,5 14 8 61 33 WNW 1006,5 6
19.06.2019 14:00:00 24,1 15,4 29 16 - - SSW 1006,7 60
19.06.2019 13:00:00 25,3 17,2 22 12 - - SSE 1006,6 60
19.06.2019 12:00:00 22,9 17,3 22 12 - - SE 1006,8 60
19.06.2019 11:00:00 21,3 17,3 18 10 - - SE 1007,0 60
19.06.2019 10:00:00 20,1 17,2 18 10 - - SW 1007,7 60
19.06.2019 09:00:00 19,4 17,1 22 12 - - ESE 1007,8 60
19.06.2019 08:00:00 18,8 17,2 25 14 - - ESE 1008,0 48
19.06.2019 07:00:00 19,1 17,1 29 16 - - E 1008,2 36
19.06.2019 06:00:00 18,7 16,8 29 16 - - E 1008,8 0
19.06.2019 05:00:00 17,8 16,2 29 16 - - ENE 1009,4 0
19.06.2019 04:00:00 17,2 15,7 22 12 - - NE 1010,2 0
19.06.2019 03:00:00 17,5 15,3 29 16 - - NE 1010,7 0
19.06.2019 02:00:00 17,4 15,3 29 16 - - NNE 1011,5 0
19.06.2019 01:00:00 17,8 14,8 29 16 - - NNE 1012,1 0
19.06.2019 00:00:00 17,8 14,2 25 14 - - NNE 1012,6 0
18.06.2019 23:00:00 17,3 14,8 22 12 - - NNE 1013,1 0
18.06.2019 22:00:00 17,3 14,9 22 12 - - N 1013,4 12
18.06.2019 21:00:00 17,4 14,9 22 12 - - N 1013,3 60
18.06.2019 20:00:00 17,4 14,8 25 14 - - N 1013,2 60
18.06.2019 19:00:00 17,3 15,5 25 14 - - N 1013,3 60
18.06.2019 18:00:00 17,8 15,7 25 14 - - NNW 1013,5 60
18.06.2019 17:00:00 19,1 15,8 22 12 - - NNW 1013,8 60
18.06.2019 16:00:00 21,5 12,6 14 8 - - NW 1013,9 24
18.06.2019 15:00:00 21,5 13,2 14 8 - - NNW 1014,3 60
18.06.2019 14:00:00 21,0 15,8 7 4 - - NNW 1014,5 60
18.06.2019 13:00:00 21,2 14,2 4 2 - - S 1014,9 54
18.06.2019 12:00:00 20,3 15,7 7 4 - - S 1015,1 24
18.06.2019 11:00:00 19,9 16,2 11 6 - - SSE 1015,1 24
18.06.2019 10:00:00 19,0 15,9 11 6 - - S 1015,4 60
18.06.2019 09:00:00 18,3 15,3 11 6 - - SSW 1015,6 48
18.06.2019 08:00:00 18,2 15,4 18 10 - - S 1015,6 36
18.06.2019 07:00:00 18,5 15,4 18 10 - - S 1015,5 6
18.06.2019 06:00:00 19,3 14,9 29 16 - - SSE 1015,6 0
18.06.2019 05:00:00 20,3 14,1 29 16 - - SSE 1015,7 0
18.06.2019 04:00:00 20,2 14,5 29 16 - - SSE 1016,0 0
18.06.2019 03:00:00 20,8 14,4 29 16 - - SSE 1016,4 0
18.06.2019 02:00:00 21,4 14,1 29 16 - - SSE 1016,7 0
18.06.2019 01:00:00 22,0 13,8 25 14 - - SSE 1017,0 0
18.06.2019 00:00:00 22,3 13,8 18 10 - - SE 1017,1 0
17.06.2019 23:00:00 23,0 13,6 22 12 - - ESE 1017,3 0
17.06.2019 22:00:00 23,4 13,4 18 10 - - ESE 1017,5 24
17.06.2019 21:00:00 23,5 14,1 22 12 - - E 1017,5 60
17.06.2019 20:00:00 22,5 15,2 25 14 - - E 1018,0 60
17.06.2019 19:00:00 22,1 15,0 22 12 - - E 1018,4 54
17.06.2019 18:00:00 21,8 14,9 22 12 - - ENE 1018,8 60
17.06.2019 17:00:00 21,6 15,3 18 10 - - E 1019,5 60
17.06.2019 16:00:00 21,6 13,3 18 10 - - ESE 1019,9 60
17.06.2019 15:00:00 21,3 14,4 14 8 - - E 1020,3 60
17.06.2019 14:00:00 20,5 15,2 11 6 - - E 1020,6 60
17.06.2019 13:00:00 20,3 14,0 11 6 - - SSE 1021,1 60
17.06.2019 12:00:00 19,0 14,9 14 8 - - SSE 1021,5 60
17.06.2019 11:00:00 18,4 13,8 11 6 - - SSW 1021,6 60
17.06.2019 10:00:00 17,4 14,6 18 10 - - SSW 1021,6 60
17.06.2019 09:00:00 16,6 14,7 22 12 - - SSW 1021,5 60
17.06.2019 08:00:00 15,9 14,1 25 14 - - SSW 1021,1 60
17.06.2019 07:00:00 15,8 14,1 29 16 - - S 1020,7 60
17.06.2019 06:00:00 15,8 14,7 32 18 - - S 1020,6 0
17.06.2019 05:00:00 15,8 14,7 29 16 - - S 1020,8 0
17.06.2019 04:00:00 15,9 14,0 29 16 - - S 1020,6 0
17.06.2019 03:00:00 15,7 14,2 25 14 - - S 1020,7 0
17.06.2019 02:00:00 15,9 14,4 22 12 - - S 1020,8 0
17.06.2019 01:00:00 16,3 13,3 14 8 - - SSE 1021,0 0
17.06.2019 00:00:00 16,3 13,1 14 8 - - SE 1021,0 0
16.06.2019 23:00:00 16,2 12,7 7 4 - - SSE 1020,9 0
16.06.2019 22:00:00 16,2 12,1 4 2 - - SSW 1020,7 24
16.06.2019 21:00:00 16,5 11,4 4 2 - - SW 1020,6 18
16.06.2019 20:00:00 16,7 11,9 4 2 - - WNW 1020,6 0
16.06.2019 19:00:00 16,6 12,2 7 4 - - N 1020,4 0
16.06.2019 18:00:00 16,1 12,2 7 4 - - N 1020,1 0
16.06.2019 17:00:00 16,4 12,3 18 10 - - NNW 1019,9 6
16.06.2019 16:00:00 16,4 12,9 25 14 - - NNW 1019,8 18
16.06.2019 15:00:00 17,2 13,6 22 12 - - NW 1019,3 6
16.06.2019 14:00:00 19,2 13,4 14 8 - - SSE 1018,9 24
16.06.2019 13:00:00 18,5 14,0 22 12 - - SSE 1018,8 60
16.06.2019 12:00:00 16,8 14,4 22 12 - - SSE 1018,8 60
16.06.2019 11:00:00 15,8 14,0 18 10 - - S 1018,6 60
16.06.2019 10:00:00 15,1 14,0 18 10 - - S 1018,2 54
16.06.2019 09:00:00 14,8 13,4 18 10 - - S 1018,0 6
16.06.2019 08:00:00 14,4 13,3 18 10 - - SSW 1017,8 12
16.06.2019 07:00:00 14,5 13,5 22 12 - - SSW 1017,3 18
16.06.2019 06:00:00 14,3 13,2 25 14 - - SSW 1017,1 0
16.06.2019 05:00:00 14,1 13,4 22 12 - - S 1017,0 0
16.06.2019 04:00:00 14,1 13,3 18 10 - - SSW 1016,8 0
16.06.2019 03:00:00 14,1 13,6 14 8 - - SW 1017,0 0
16.06.2019 02:00:00 14,3 13,4 14 8 - - WSW 1016,9 0
16.06.2019 01:00:00 14,2 13,4 11 6 - - W 1016,4 0
16.06.2019 00:00:00 14,4 13,0 25 14 - - W 1015,8 0
15.06.2019 23:00:00 14,5 12,7 29 16 - - W 1015,3 0
15.06.2019 22:00:00 14,4 12,0 36 19 47 25 W 1014,7 0
15.06.2019 21:00:00 14,5 14,0 32 18 47 25 W 1014,5 0
15.06.2019 20:00:00 14,3 13,9 40 21 - - WNW 1014,0 0
15.06.2019 19:00:00 14,1 14,1 47 25 54 29 WNW 1012,4 0
15.06.2019 18:00:00 15,2 15,2 29 16 50 27 W 1011,4 0
15.06.2019 17:00:00 15,4 15,4 14 8 - - W 1011,1 24
15.06.2019 16:00:00 15,2 14,7 11 6 - - W 1010,8 24
15.06.2019 15:00:00 15,1 15,1 22 12 - - NW 1010,3 0
15.06.2019 14:00:00 15,1 15,1 25 14 - - NW 1009,9 0
15.06.2019 13:00:00 16,4 15,7 29 16 - - NW 1009,0 0
15.06.2019 12:00:00 17,4 16,5 11 6 - - ENE 1009,0 0
15.06.2019 11:00:00 17,8 16,4 18 10 - - E 1008,6 42
15.06.2019 10:00:00 16,6 16,2 29 16 - - NE 1008,3 18
15.06.2019 09:00:00 16,6 16,6 25 14 - - NNE 1009,2 0
15.06.2019 08:00:00 16,9 16,3 29 16 - - NE 1008,9 0
15.06.2019 07:00:00 16,9 16,5 32 18 - - ENE 1009,8 0
15.06.2019 06:00:00 17,2 16,4 25 14 - - ENE 1011,0 0
15.06.2019 05:00:00 17,4 16,0 22 12 - - NE 1011,3 0
15.06.2019 04:00:00 17,7 15,4 25 14 - - NE 1011,9 0
15.06.2019 03:00:00 17,7 15,8 29 16 - - NE 1012,3 0
15.06.2019 02:00:00 17,4 15,8 29 16 - - NE 1013,5 0
15.06.2019 01:00:00 17,4 15,5 25 14 - - NE 1014,1 0
15.06.2019 00:00:00 18,4 15,6 29 16 - - ENE 1014,4 0
14.06.2019 23:00:00 18,3 15,0 29 16 - - ENE 1014,5 0
14.06.2019 22:00:00 19,2 15,1 25 14 - - ENE 1014,8 30
14.06.2019 21:00:00 19,6 14,7 25 14 - - E 1014,8 60
14.06.2019 20:00:00 20,2 13,8 25 14 - - E 1014,8 60
14.06.2019 19:00:00 20,0 13,9 25 14 - - E 1014,6 60
14.06.2019 18:00:00 19,5 12,2 22 12 - - E 1014,4 60
14.06.2019 17:00:00 17,2 12,2 18 10 - - N 1015,2 42
14.06.2019 16:00:00 18,5 11,4 14 8 - - NNE 1015,5 18
14.06.2019 15:00:00 16,7 12,6 29 16 - - NW 1016,7 6
14.06.2019 14:00:00 16,4 13,4 18 10 - - N 1015,1 36
14.06.2019 13:00:00 17,1 13,4 14 8 - - NNE 1015,3 6
14.06.2019 12:00:00 18,9 12,9 7 4 - - E 1015,2 30
14.06.2019 11:00:00 17,7 11,4 14 8 - - SE 1015,1 60
14.06.2019 10:00:00 16,8 12,3 14 8 - - SSE 1015,7 60
14.06.2019 09:00:00 15,7 12,8 25 14 - - S 1015,5 54
14.06.2019 08:00:00 15,2 12,6 25 14 - - SSE 1015,2 54
14.06.2019 07:00:00 15,3 11,9 29 16 - - SSE 1014,6 12
14.06.2019 06:00:00 15,3 11,9 25 14 - - S 1014,3 0

tt = temperature
td = dewpoint
ff = wind speed
fx = gusts
dd = wind direction
ppp = reduced air pressure
sd = sunshine duration

Next stations